createdAt,value
2022-10-05T00:00:54.599Z,4.10
2022-10-05T00:03:23.237Z,3.95
2022-10-05T00:05:58.938Z,4.78
2022-10-05T00:08:34.839Z,3.47
2022-10-05T00:11:04.605Z,3.97
2022-10-05T00:13:35.585Z,4.38
2022-10-05T00:16:14.032Z,3.63
2022-10-05T00:18:41.713Z,4.80
2022-10-05T00:21:25.796Z,4.57
2022-10-05T00:23:53.303Z,4.72
2022-10-05T00:26:21.728Z,3.65
2022-10-05T00:28:49.027Z,4.43
2022-10-05T00:31:26.988Z,4.38
2022-10-05T00:33:55.305Z,3.75
2022-10-05T00:36:22.372Z,4.43
2022-10-05T00:38:49.725Z,5.13
2022-10-05T00:41:44.836Z,4.78
2022-10-05T00:44:25.240Z,3.55
2022-10-05T00:47:56.953Z,3.95
2022-10-05T00:50:35.408Z,4.60
2022-10-05T00:53:17.675Z,7.78
2022-10-05T00:55:54.133Z,5.05
2022-10-05T00:58:24.614Z,5.35
2022-10-05T01:00:56.745Z,4.82
2022-10-05T01:03:40.111Z,4.10
2022-10-05T01:06:23.782Z,5.25
2022-10-05T01:08:56.889Z,3.17
2022-10-05T01:11:43.537Z,4.55
2022-10-05T01:14:25.955Z,3.50
2022-10-05T01:17:20.541Z,4.10
2022-10-05T01:20:01.889Z,3.53
2022-10-05T01:22:48.078Z,5.90
2022-10-05T01:25:50.677Z,3.22
2022-10-05T01:28:23.850Z,4.82
2022-10-05T01:31:06.331Z,3.60
2022-10-05T01:34:02.463Z,3.35
2022-10-05T01:37:05.432Z,4.57
2022-10-05T01:39:58.785Z,3.13
2022-10-05T01:42:42.948Z,7.68
2022-10-05T01:45:31.910Z,4.80
2022-10-05T01:48:10.321Z,3.30
2022-10-05T01:51:01.601Z,5.28
2022-10-05T01:53:36.214Z,4.75
2022-10-05T01:56:42.661Z,3.67
2022-10-05T01:59:44.898Z,3.88
2022-10-05T02:02:22.813Z,4.32
2022-10-05T02:05:07.047Z,4.90
2022-10-05T02:07:58.004Z,3.92
2022-10-05T02:10:35.906Z,4.03
2022-10-05T02:13:07.174Z,4.65
2022-10-05T02:15:39.136Z,5.68
2022-10-05T02:18:21.552Z,4.72
2022-10-05T02:20:51.919Z,5.00
2022-10-05T02:23:24.097Z,6.05
2022-10-05T02:25:52.151Z,3.85
2022-10-05T02:29:04.761Z,4.57
2022-10-05T02:31:50.792Z,6.28
2022-10-05T02:34:32.290Z,4.63
2022-10-05T02:37:54.447Z,6.38
2022-10-05T02:40:46.126Z,5.68
2022-10-05T02:43:40.375Z,3.75
2022-10-05T02:46:16.446Z,5.10
2022-10-05T02:49:02.260Z,3.03
2022-10-05T02:51:36.301Z,3.15
2022-10-05T02:54:20.688Z,5.70
2022-10-05T02:57:21.549Z,6.28
2022-10-05T03:00:15.671Z,4.82
2022-10-05T03:02:58.922Z,4.13
2022-10-05T03:05:51.778Z,5.85
2022-10-05T03:08:34.951Z,5.00
2022-10-05T03:11:15.791Z,3.00
2022-10-05T03:14:02.153Z,5.43
2022-10-05T03:16:33.161Z,4.53
2022-10-05T03:22:13.480Z,5.85
2022-10-05T03:25:03.163Z,4.13
2022-10-05T03:27:37.115Z,4.67
2022-10-05T03:30:05.809Z,5.85
2022-10-05T03:32:45.250Z,6.50
2022-10-05T03:35:22.496Z,5.75
2022-10-05T03:38:15.325Z,5.25
2022-10-05T03:41:01.579Z,4.00
2022-10-05T03:43:46.729Z,5.90
2022-10-05T03:46:22.533Z,6.22
2022-10-05T03:49:01.696Z,4.25
2022-10-05T03:51:41.079Z,5.80
2022-10-05T03:54:24.411Z,3.70
2022-10-05T03:57:15.830Z,5.90
2022-10-05T04:00:08.841Z,5.38
2022-10-05T04:03:12.957Z,4.38
2022-10-05T04:06:09.951Z,5.05
2022-10-05T04:09:06.593Z,5.00
2022-10-05T04:12:03.401Z,3.55
2022-10-05T04:14:44.043Z,6.15
2022-10-05T04:17:21.636Z,5.47
2022-10-05T04:20:03.816Z,5.53
2022-10-05T04:22:40.194Z,6.95
2022-10-05T04:25:24.068Z,5.95
2022-10-05T04:28:11.856Z,5.38
2022-10-05T04:30:46.039Z,4.25
2022-10-05T04:33:16.022Z,4.53
2022-10-05T04:36:36.441Z,5.75
2022-10-05T04:39:45.566Z,6.30
2022-10-05T04:42:15.888Z,6.53
2022-10-05T04:47:42.165Z,5.32
2022-10-05T04:50:49.045Z,4.53
2022-10-05T04:53:35.600Z,4.57
2022-10-05T04:56:14.981Z,4.40
2022-10-05T04:59:07.723Z,4.28
2022-10-05T05:01:53.959Z,3.72
2022-10-05T05:04:54.825Z,6.32
2022-10-05T05:07:48.599Z,3.95
2022-10-05T05:10:41.759Z,4.32
2022-10-05T05:13:24.785Z,3.95
2022-10-05T05:15:52.624Z,6.00
2022-10-05T05:18:42.758Z,8.07
2022-10-05T05:21:20.544Z,6.72
2022-10-05T05:24:12.961Z,4.85
2022-10-05T05:26:52.830Z,5.38
2022-10-05T05:29:42.138Z,4.15
2022-10-05T05:32:13.342Z,4.50
2022-10-05T05:35:06.000Z,3.45
2022-10-05T05:37:39.515Z,3.85
2022-10-05T05:40:28.236Z,4.05
2022-10-05T05:43:16.300Z,4.80
2022-10-05T05:45:52.220Z,4.20
2022-10-05T05:48:38.745Z,4.50
2022-10-05T05:54:15.545Z,7.32
2022-10-05T05:56:47.704Z,4.30
2022-10-05T05:59:24.908Z,4.82
2022-10-05T06:01:54.711Z,5.90
2022-10-05T06:04:45.334Z,4.95
2022-10-05T06:07:28.050Z,5.00
2022-10-05T06:10:21.579Z,5.45
2022-10-05T06:13:01.991Z,5.75
2022-10-05T06:15:43.784Z,6.18
2022-10-05T06:18:14.105Z,6.55
2022-10-05T06:21:10.645Z,7.72
2022-10-05T06:23:49.281Z,6.22
2022-10-05T06:26:29.867Z,3.30
2022-10-05T06:29:19.456Z,7.90
2022-10-05T06:31:59.015Z,8.35
2022-10-05T06:34:45.650Z,7.07
2022-10-05T06:37:20.498Z,5.53
2022-10-05T06:40:10.877Z,3.85
2022-10-05T06:45:41.811Z,4.32
2022-10-05T06:49:03.091Z,6.90
2022-10-05T06:52:16.545Z,7.43
2022-10-05T06:54:54.517Z,4.85
2022-10-05T06:57:45.900Z,4.32
2022-10-05T07:00:24.995Z,4.15
2022-10-05T07:03:00.115Z,6.00
2022-10-05T07:05:42.486Z,2.55
2022-10-05T07:08:11.176Z,3.00
2022-10-05T07:10:57.900Z,4.45
2022-10-05T07:13:40.401Z,3.60
2022-10-05T07:16:26.735Z,5.30
2022-10-05T07:19:10.570Z,3.85
2022-10-05T07:21:58.484Z,4.55
2022-10-05T07:25:06.227Z,3.50
2022-10-05T07:27:34.844Z,4.47
2022-10-05T07:30:06.817Z,5.30
2022-10-05T07:32:43.638Z,5.13
2022-10-05T07:36:11.655Z,3.90
2022-10-05T07:38:58.712Z,4.15
2022-10-05T07:41:37.069Z,3.55
2022-10-05T07:44:34.547Z,3.97
2022-10-05T07:47:31.106Z,3.60
2022-10-05T07:50:19.490Z,5.00
2022-10-05T07:52:50.896Z,5.25
2022-10-05T07:55:45.942Z,4.65
2022-10-05T07:58:21.134Z,4.97
2022-10-05T08:01:11.403Z,6.32
2022-10-05T08:03:47.351Z,6.68
2022-10-05T08:06:38.371Z,5.68
2022-10-05T08:09:21.248Z,5.53
2022-10-05T08:12:10.608Z,4.28
2022-10-05T08:14:57.168Z,6.40
2022-10-05T08:17:56.205Z,3.90
2022-10-05T08:20:29.830Z,7.93
2022-10-05T08:23:16.449Z,3.97
2022-10-05T08:25:51.608Z,5.68
2022-10-05T08:28:58.002Z,5.85
2022-10-05T08:31:32.126Z,5.45
2022-10-05T08:34:25.685Z,4.85
2022-10-05T08:37:14.122Z,8.00
2022-10-05T08:39:49.710Z,7.13
2022-10-05T08:42:29.903Z,8.38
2022-10-05T08:47:55.030Z,5.70
2022-10-05T08:50:41.233Z,9.20
2022-10-05T08:53:14.831Z,4.30
2022-10-05T08:55:47.182Z,5.38
2022-10-05T08:58:33.261Z,5.88
2022-10-05T09:01:18.618Z,7.32
2022-10-05T09:03:55.212Z,6.70
2022-10-05T09:06:22.309Z,5.82
2022-10-05T09:08:52.152Z,6.47
2022-10-05T09:11:28.628Z,7.20
2022-10-05T09:14:21.188Z,7.45
2022-10-05T09:17:28.604Z,7.25
2022-10-05T09:20:18.326Z,6.57
2022-10-05T09:22:52.028Z,7.88
2022-10-05T09:25:43.584Z,5.18
2022-10-05T09:28:30.083Z,7.13
2022-10-05T09:31:19.756Z,9.85
2022-10-05T09:34:03.083Z,5.85
2022-10-05T09:36:48.880Z,3.47
2022-10-05T09:39:19.536Z,9.07
2022-10-05T09:42:05.049Z,5.05
2022-10-05T09:44:54.073Z,5.53
2022-10-05T09:47:55.445Z,8.20
2022-10-05T09:50:25.811Z,6.82
2022-10-05T09:52:53.119Z,6.05
2022-10-05T09:55:32.302Z,6.30
2022-10-05T09:58:14.753Z,7.10
2022-10-05T10:01:32.211Z,6.20
2022-10-05T10:04:31.715Z,6.53
2022-10-05T10:07:05.307Z,7.57
2022-10-05T10:10:04.994Z,7.68
2022-10-05T10:13:10.214Z,5.75
2022-10-05T10:16:06.553Z,7.65
2022-10-05T10:18:36.564Z,8.20
2022-10-05T10:21:13.309Z,8.60
2022-10-05T10:24:11.152Z,9.40
2022-10-05T10:26:57.376Z,3.80
2022-10-05T10:29:33.775Z,6.55
2022-10-05T10:32:48.879Z,9.10
2022-10-05T10:35:38.495Z,9.27
2022-10-05T10:38:29.941Z,7.47
2022-10-05T10:41:34.000Z,7.55
2022-10-05T10:44:39.257Z,7.15
2022-10-05T10:47:14.017Z,4.53
2022-10-05T10:49:59.990Z,7.75
2022-10-05T10:53:01.623Z,6.97
2022-10-05T10:55:38.519Z,5.05
2022-10-05T10:58:31.913Z,8.57
2022-10-05T11:01:05.092Z,7.22
2022-10-05T11:04:18.293Z,6.35
2022-10-05T11:07:14.773Z,6.75
2022-10-05T11:10:26.509Z,6.55
2022-10-05T11:13:13.603Z,7.60
2022-10-05T11:16:10.996Z,8.10
2022-10-05T11:19:04.735Z,8.52
2022-10-05T11:21:54.409Z,6.55
2022-10-05T11:24:48.169Z,8.48
2022-10-05T11:27:31.578Z,10.02
2022-10-05T11:30:17.028Z,6.97
2022-10-05T11:33:24.926Z,7.55
2022-10-05T11:36:33.825Z,8.10
2022-10-05T11:39:23.693Z,7.25
2022-10-05T11:42:09.124Z,7.45
2022-10-05T11:45:07.551Z,4.93
2022-10-05T11:47:57.234Z,5.88
2022-10-05T11:50:34.099Z,6.07
2022-10-05T11:53:06.640Z,5.05
2022-10-05T11:55:57.957Z,6.03
2022-10-05T11:58:48.059Z,5.55
2022-10-05T12:01:15.291Z,4.60
2022-10-05T12:03:51.684Z,7.30
2022-10-05T12:06:34.549Z,7.38
2022-10-05T12:10:01.913Z,5.40
2022-10-05T12:12:55.245Z,5.97
2022-10-05T12:15:32.279Z,4.70
2022-10-05T12:18:07.056Z,7.22
2022-10-05T12:20:50.296Z,8.15
2022-10-05T12:23:22.761Z,5.28
2022-10-05T12:26:01.992Z,5.00
2022-10-05T12:28:49.746Z,6.45
2022-10-05T12:31:25.734Z,5.55
2022-10-05T12:34:14.994Z,5.05
2022-10-05T12:37:08.741Z,4.80
2022-10-05T12:39:51.170Z,5.75
2022-10-05T12:42:32.517Z,5.32
2022-10-05T12:45:31.777Z,4.22
2022-10-05T12:48:31.433Z,4.87
2022-10-05T12:51:14.615Z,7.22
2022-10-05T13:11:05.997Z,5.32
2022-10-05T13:13:40.835Z,5.18
2022-10-05T13:16:32.558Z,7.05
2022-10-05T13:19:19.555Z,7.55
2022-10-05T13:22:04.727Z,7.15
2022-10-05T13:25:02.441Z,6.78
2022-10-05T13:27:50.157Z,5.95
2022-10-05T13:30:20.484Z,8.82
2022-10-05T13:33:01.177Z,10.25
2022-10-05T13:36:03.458Z,10.02
2022-10-05T13:38:43.098Z,9.85
2022-10-05T13:41:44.033Z,10.48
2022-10-05T13:44:14.780Z,7.45
2022-10-05T13:46:56.957Z,10.70
2022-10-05T13:49:51.306Z,5.85
2022-10-05T13:52:42.541Z,10.50
2022-10-05T13:55:36.190Z,7.53
2022-10-05T13:58:07.742Z,6.90
2022-10-05T14:00:56.910Z,5.60
2022-10-05T14:03:37.750Z,5.57
2022-10-05T14:06:12.845Z,4.28
2022-10-05T14:08:58.655Z,3.45
2022-10-05T14:11:36.206Z,2.58
2022-10-05T14:14:10.508Z,2.85
2022-10-05T14:17:06.484Z,3.00
2022-10-05T14:19:54.489Z,4.07
2022-10-05T14:22:32.290Z,3.00
2022-10-05T14:25:18.788Z,3.70
2022-10-05T14:28:19.788Z,2.72
2022-10-05T14:31:02.832Z,2.78
2022-10-05T14:33:34.765Z,3.47
2022-10-05T14:36:02.704Z,2.30
2022-10-05T14:38:38.669Z,1.90
2022-10-05T14:41:16.365Z,2.00
2022-10-05T14:44:17.795Z,2.35
2022-10-05T14:47:02.902Z,2.53
2022-10-05T14:49:39.336Z,2.10
2022-10-05T14:52:33.450Z,1.88
2022-10-05T14:55:34.892Z,1.73
2022-10-05T14:58:11.142Z,1.80
2022-10-05T15:00:48.179Z,2.35
2022-10-05T15:03:19.380Z,2.00
2022-10-05T15:05:50.953Z,1.90
2022-10-05T15:08:21.196Z,2.97
2022-10-05T15:13:24.401Z,1.55
2022-10-05T15:15:54.861Z,2.85
2022-10-05T15:19:12.440Z,2.15
2022-10-05T15:21:43.062Z,2.25
2022-10-05T15:24:41.263Z,2.85
2022-10-05T15:30:09.362Z,1.63
2022-10-05T15:32:42.322Z,2.63
2022-10-05T15:35:27.200Z,1.75
2022-10-05T15:38:10.085Z,2.88
2022-10-05T15:41:03.902Z,3.17
2022-10-05T15:44:17.255Z,1.70
2022-10-05T15:46:46.967Z,2.15
2022-10-05T15:49:19.959Z,2.47
2022-10-05T15:52:05.275Z,3.05
2022-10-05T15:54:57.503Z,2.17
2022-10-05T15:57:42.747Z,1.58
2022-10-05T16:00:17.107Z,5.35
2022-10-05T16:03:14.726Z,2.53
2022-10-05T16:06:04.792Z,4.07
2022-10-05T16:08:58.675Z,1.73
2022-10-05T16:11:48.186Z,2.80
2022-10-05T16:14:56.428Z,3.30
2022-10-05T16:17:30.489Z,2.63
2022-10-05T16:20:09.564Z,4.70
2022-10-05T16:25:46.004Z,4.03
2022-10-05T16:31:47.346Z,1.60
2022-10-05T16:35:08.455Z,3.65
2022-10-05T16:38:45.381Z,2.10
2022-10-05T16:41:17.905Z,2.63
2022-10-05T16:44:09.048Z,2.50
2022-10-05T16:46:46.832Z,3.72
2022-10-05T16:49:36.851Z,2.92
2022-10-05T16:52:06.850Z,2.78
2022-10-05T16:54:42.186Z,3.65
2022-10-05T16:57:21.384Z,2.58
2022-10-05T17:00:15.045Z,5.07
2022-10-05T17:02:46.240Z,3.35
2022-10-05T17:07:55.660Z,2.30
2022-10-05T17:10:37.276Z,2.35
2022-10-05T17:13:04.551Z,3.88
2022-10-05T17:15:55.185Z,3.10
2022-10-05T17:18:28.095Z,6.13
2022-10-05T17:21:18.196Z,3.03
2022-10-05T17:23:55.250Z,2.70
2022-10-05T17:26:53.307Z,3.78
2022-10-05T17:29:27.066Z,3.00
2022-10-05T17:32:02.333Z,5.38
2022-10-05T17:34:35.133Z,2.05
2022-10-05T17:37:28.789Z,3.58
2022-10-05T17:39:56.475Z,3.92
2022-10-05T17:42:26.818Z,2.17
2022-10-05T17:48:02.829Z,2.80
2022-10-05T17:51:04.178Z,3.33
2022-10-05T17:54:02.184Z,4.82
2022-10-05T17:56:53.769Z,4.22
2022-10-05T18:00:02.458Z,2.67
2022-10-05T18:02:40.214Z,3.58
2022-10-05T18:05:53.934Z,6.88
2022-10-05T18:08:32.950Z,4.47
2022-10-05T18:11:09.791Z,5.63
2022-10-05T18:13:50.249Z,8.40
2022-10-05T18:19:08.044Z,2.88
2022-10-05T18:21:37.639Z,3.38
2022-10-05T18:24:20.500Z,3.85
2022-10-05T18:26:50.373Z,5.35
2022-10-05T18:29:54.768Z,4.15
2022-10-05T18:32:34.953Z,4.43
2022-10-05T18:35:11.130Z,3.90
2022-10-05T18:37:59.827Z,4.70
2022-10-05T18:40:42.737Z,7.78
2022-10-05T18:43:17.208Z,5.68
2022-10-05T18:46:31.123Z,7.13
2022-10-05T18:49:20.134Z,3.92
2022-10-05T18:51:55.936Z,7.63
2022-10-05T18:55:05.657Z,4.55
2022-10-05T18:57:57.795Z,7.07
2022-10-05T19:00:30.545Z,4.15
2022-10-05T19:03:56.836Z,3.40
2022-10-05T19:06:57.457Z,3.55
2022-10-05T19:09:57.282Z,6.07
2022-10-05T19:12:46.734Z,7.65
2022-10-05T19:15:32.558Z,4.55
2022-10-05T19:18:26.145Z,5.93
2022-10-05T19:21:30.534Z,6.18
2022-10-05T19:24:57.267Z,5.93
2022-10-05T19:29:06.743Z,5.53
2022-10-05T19:32:11.740Z,6.72
2022-10-05T19:35:40.517Z,4.10
2022-10-05T19:38:21.428Z,3.63
2022-10-05T19:41:13.378Z,6.18
2022-10-05T19:44:18.000Z,8.05
2022-10-05T19:50:02.330Z,8.23
2022-10-05T19:52:50.182Z,7.25
2022-10-05T19:55:22.130Z,5.18
2022-10-05T19:57:52.851Z,8.68
2022-10-05T20:00:27.434Z,9.10
2022-10-05T20:03:14.849Z,6.70
2022-10-05T20:05:55.054Z,6.90
2022-10-05T20:08:28.313Z,5.90
2022-10-05T20:11:18.362Z,9.18
2022-10-05T20:14:06.914Z,5.95
2022-10-05T20:16:53.491Z,7.32
2022-10-05T20:19:35.685Z,11.32
2022-10-05T20:22:24.975Z,5.82
2022-10-05T20:24:54.253Z,7.82
2022-10-05T20:27:40.072Z,10.32
2022-10-05T20:30:07.969Z,8.32
2022-10-05T20:32:35.254Z,7.88
2022-10-05T20:35:03.484Z,6.53
2022-10-05T20:37:31.547Z,9.63
2022-10-05T20:40:00.340Z,9.57
2022-10-05T20:42:27.401Z,4.35
2022-10-05T20:44:56.963Z,9.50
2022-10-05T20:47:25.042Z,8.10
2022-10-05T20:49:54.980Z,7.40
2022-10-05T20:52:23.369Z,10.23
2022-10-05T20:54:53.892Z,10.68
2022-10-05T20:57:21.389Z,10.40
2022-10-05T20:59:49.341Z,9.82
2022-10-05T21:02:17.169Z,10.05
2022-10-05T21:04:53.395Z,9.50
2022-10-05T21:07:21.862Z,11.50
2022-10-05T21:09:49.185Z,8.13
2022-10-05T21:12:20.533Z,10.55
2022-10-05T21:14:47.670Z,10.13
2022-10-05T21:17:14.929Z,8.93
2022-10-05T21:19:42.356Z,6.53
2022-10-05T21:22:09.869Z,7.63
2022-10-05T21:24:38.005Z,9.98
2022-10-05T21:27:05.573Z,8.35
2022-10-05T21:29:41.830Z,12.70
2022-10-05T21:32:12.050Z,9.50
2022-10-05T21:34:39.996Z,11.48
2022-10-05T21:37:07.980Z,13.57
2022-10-05T21:39:35.829Z,6.22
2022-10-05T21:42:03.053Z,7.00
2022-10-05T21:44:35.533Z,7.00
2022-10-05T21:47:04.438Z,9.77
2022-10-05T21:49:31.835Z,7.28
2022-10-05T21:52:00.815Z,9.95
2022-10-05T21:54:28.861Z,10.00
2022-10-05T21:57:01.678Z,9.35
2022-10-05T21:59:34.586Z,6.32
2022-10-05T22:02:02.642Z,10.48
2022-10-05T22:04:30.006Z,9.48
2022-10-05T22:06:57.363Z,8.43
2022-10-05T22:09:27.232Z,8.82
2022-10-05T22:11:55.095Z,8.00
2022-10-05T22:14:22.746Z,9.00
2022-10-05T22:16:49.928Z,9.90
2022-10-05T22:19:20.723Z,11.38
2022-10-05T22:21:47.996Z,10.88
2022-10-05T22:24:15.382Z,9.30
2022-10-05T22:26:46.537Z,9.38
2022-10-05T22:29:14.959Z,8.95
2022-10-05T22:31:46.375Z,14.25
2022-10-05T22:34:23.561Z,8.05
2022-10-05T22:36:50.899Z,9.15
2022-10-05T22:39:18.041Z,7.65
2022-10-05T22:41:45.600Z,7.20
2022-10-05T22:44:16.231Z,8.55
2022-10-05T22:46:43.632Z,11.38
2022-10-05T22:49:10.956Z,10.35
2022-10-05T22:51:37.991Z,8.07
2022-10-05T22:54:05.588Z,7.97
2022-10-05T22:56:33.062Z,9.98
2022-10-05T22:59:03.030Z,7.47
2022-10-05T23:01:30.123Z,7.47
2022-10-05T23:03:57.687Z,9.57
2022-10-05T23:06:26.725Z,9.85
2022-10-05T23:08:54.476Z,10.85
2022-10-05T23:11:26.108Z,10.52
2022-10-05T23:13:57.374Z,9.30
2022-10-05T23:16:26.988Z,8.57
2022-10-05T23:18:54.665Z,9.50
2022-10-05T23:21:22.612Z,6.05
2022-10-05T23:23:51.523Z,11.95
2022-10-05T23:26:20.889Z,6.65
2022-10-05T23:28:48.191Z,9.32
2022-10-05T23:31:17.379Z,7.30
2022-10-05T23:33:44.461Z,12.88
2022-10-05T23:36:22.635Z,8.75
2022-10-05T23:38:50.211Z,10.30
2022-10-05T23:41:25.503Z,9.55
2022-10-05T23:43:55.457Z,12.00
2022-10-05T23:46:22.950Z,11.63
2022-10-05T23:48:50.654Z,6.22
2022-10-05T23:51:17.832Z,12.27
2022-10-05T23:53:45.041Z,10.32
2022-10-05T23:56:12.446Z,10.88
2022-10-05T23:58:41.171Z,13.55
